Time;durP1;ratioP1;P1;durP2;ratioP2;P2;SDS_P1;SDS_P2;PMS_P1;PMS_P2;Temp;Humidity;BMP_temperature;BMP_pressure;BME280_temperature;BME280_humidity;BME280_pressure;Samples;Min_cycle;Max_cycle;Signal;HPM_P1;HPM_P2
2021/11/17 02:32:46;;;;;;;;;;;7.90;64.50;;;;;;20994870;27;75941;-67
2021/11/17 02:43:14;;;;;;;;;;;7.80;64.80;;;;;;21003808;27;74717;-68
2021/11/17 02:53:37;;;;;;;;;;;7.90;64.90;;;;;;20984675;27;75951;-68
2021/11/17 03:03:49;;;;;;;;;;;8.00;64.50;;;;;;21001668;27;75907;-69
2021/11/17 03:13:57;;;;;;;;;;;7.90;64.20;;;;;;21001621;27;75734;-69
2021/11/17 03:24:05;;;;;;;;;;;7.90;64.30;;;;;;21000840;27;76748;-69
2021/11/17 03:34:20;;;;;;;;;;;7.90;64.40;;;;;;20999563;27;75154;-69
2021/11/17 03:44:45;;;;;;;;;;;7.90;64.70;;;;;;20999405;27;75702;-69
2021/11/17 03:54:47;;;;;;;;;;;7.80;64.70;;;;;;20998227;27;76720;-69
2021/11/17 04:05:08;;;;;;;;;;;7.70;65.10;;;;;;20980059;27;75764;-70
2021/11/17 04:15:17;;;;;;;;;;;7.60;65.20;;;;;;20996686;27;75504;-69
2021/11/17 04:25:21;;;;;;;;;;;7.60;65.40;;;;;;20978651;27;75642;-70
2021/11/17 04:35:30;;;;;;;;;;;7.60;65.20;;;;;;20977596;27;76013;-69
2021/11/17 04:45:40;;;;;;;;;;;7.60;64.90;;;;;;20977530;27;75673;-70
2021/11/17 04:56:00;;;;;;;;;;;7.50;65.20;;;;;;20976536;27;74733;-71
2021/11/17 05:06:16;;;;;;;;;;;7.40;65.20;;;;;;20994135;27;75458;-67
2021/11/17 05:16:59;;;;;;;;;;;7.40;65.50;;;;;;20980317;27;77635;-66
2021/11/17 05:27:21;;;;;;;;;;;7.30;65.80;;;;;;20991638;27;76089;-67
2021/11/17 05:37:27;;;;;;;;;;;7.20;66.30;;;;;;20988691;27;76712;-69
2021/11/17 05:47:36;;;;;;;;;;;7.30;66.00;;;;;;20982065;27;76518;-69
2021/11/17 05:57:44;;;;;;;;;;;7.20;66.20;;;;;;20990173;27;75671;-69
2021/11/17 06:07:46;;;;;;;;;;;7.20;66.30;;;;;;20990406;27;77051;-68
2021/11/17 06:17:49;;;;;;;;;;;7.10;66.10;;;;;;20971967;27;75714;-69
2021/11/17 06:27:59;;;;;;;;;;;7.00;66.50;;;;;;20988801;27;76072;-69
2021/11/17 06:38:03;;;;;;;;;;;6.90;66.70;;;;;;20971493;27;76124;-62
2021/11/17 06:48:05;;;;;;;;;;;6.50;67.80;;;;;;20976231;27;75465;-61
2021/11/17 06:58:08;;;;;;;;;;;6.40;68.40;;;;;;20972149;27;76555;-61
2021/11/17 07:08:10;;;;;;;;;;;6.40;68.70;;;;;;20960437;27;76006;-61
2021/11/17 07:18:12;;;;;;;;;;;6.60;68.30;;;;;;20977848;27;76912;-61
2021/11/17 07:28:15;;;;;;;;;;;6.80;67.80;;;;;;20982675;27;75992;-62
2021/11/17 07:38:19;;;;;;;;;;;6.90;67.10;;;;;;20988663;27;75681;-61
2021/11/17 07:48:23;;;;;;;;;;;7.20;66.30;;;;;;20987169;27;74740;-61
2021/11/17 07:58:28;;;;;;;;;;;7.40;65.80;;;;;;20980170;27;75813;-59
2021/11/17 08:08:31;;;;;;;;;;;7.80;64.90;;;;;;20983609;27;75669;-65
2021/11/17 08:18:34;;;;;;;;;;;8.00;64.20;;;;;;20982767;27;75917;-62
2021/11/17 08:28:36;;;;;;;;;;;8.40;62.80;;;;;;20978288;27;77306;-62
2021/11/17 08:38:38;;;;;;;;;;;8.70;62.10;;;;;;20984075;27;75856;-62
2021/11/17 08:48:41;;;;;;;;;;;8.90;61.20;;;;;;20959790;27;76808;-60
2021/11/17 08:58:43;;;;;;;;;;;9.10;60.70;;;;;;20982747;27;75376;-60
2021/11/17 09:08:45;;;;;;;;;;;10.60;55.70;;;;;;20964117;27;76723;-59
2021/11/17 09:18:52;;;;;;;;;;;9.90;57.90;;;;;;20962939;27;76682;-61
2021/11/17 09:28:58;;;;;;;;;;;10.00;57.70;;;;;;20980167;27;75743;-60
2021/11/17 09:39:01;;;;;;;;;;;12.00;53.00;;;;;;20973442;27;75964;-61
2021/11/17 09:49:09;;;;;;;;;;;14.70;44.40;;;;;;20978903;27;76798;-63
2021/11/17 09:59:14;;;;;;;;;;;12.30;51.00;;;;;;20976390;27;77076;-62
2021/11/17 10:19:37;;;;;;;;;;;18.50;42.00;;;;;;20976941;27;76229;-61
2021/11/17 10:29:42;;;;;;;;;;;26.20;28.30;;;;;;20977054;27;76778;-62
2021/11/17 10:39:47;;;;;;;;;;;24.80;30.80;;;;;;20971458;27;76499;-63
2021/11/17 10:49:57;;;;;;;;;;;30.00;24.60;;;;;;20954641;27;76750;-64
2021/11/17 10:59:59;;;;;;;;;;;31.00;23.60;;;;;;20990495;27;75912;-63
2021/11/17 11:10:23;;;;;;;;;;;33.80;21.20;;;;;;20986828;27;75830;-62
2021/11/17 11:20:26;;;;;;;;;;;34.40;20.20;;;;;;20986069;27;76952;-62
2021/11/17 11:30:38;;;;;;;;;;;35.20;19.50;;;;;;20980016;27;76803;-62
2021/11/17 11:41:03;;;;;;;;;;;36.80;19.30;;;;;;20961908;27;75862;-61
2021/11/17 11:51:25;;;;;;;;;;;34.30;20.90;;;;;;20985297;27;76796;-61
2021/11/17 12:01:27;;;;;;;;;;;31.80;22.70;;;;;;20974697;27;76758;-63
2021/11/17 12:11:31;;;;;;;;;;;32.70;21.70;;;;;;20983051;27;74814;-60
2021/11/17 12:21:39;;;;;;;;;;;34.00;20.90;;;;;;20985402;27;76221;-61
2021/11/17 12:31:50;;;;;;;;;;;29.70;23.30;;;;;;20979477;27;76454;-62
2021/11/17 12:41:54;;;;;;;;;;;26.70;26.50;;;;;;20983416;27;76986;-62
2021/11/17 12:51:58;;;;;;;;;;;28.20;24.00;;;;;;20960242;27;76061;-62
2021/11/17 13:02:25;;;;;;;;;;;30.10;22.20;;;;;;20982050;27;76360;-62
2021/11/17 13:12:31;;;;;;;;;;;29.10;23.30;;;;;;20979524;27;76198;-62
2021/11/17 13:22:36;;;;;;;;;;;27.10;25.40;;;;;;20960095;27;75950;-63
2021/11/17 13:32:39;;;;;;;;;;;31.70;21.20;;;;;;20961201;27;76837;-63
2021/11/17 13:42:41;;;;;;;;;;;24.90;26.60;;;;;;20978169;27;76511;-62
2021/11/17 13:52:45;;;;;;;;;;;29.10;24.10;;;;;;20974850;27;76866;-62
2021/11/17 14:02:48;;;;;;;;;;;30.40;21.30;;;;;;20978397;27;76729;-63
2021/11/17 14:12:52;;;;;;;;;;;33.50;19.20;;;;;;20976142;27;76072;-60
2021/11/17 14:22:56;;;;;;;;;;;26.10;25.00;;;;;;20959126;27;75773;-64
2021/11/17 14:32:58;;;;;;;;;;;21.30;30.20;;;;;;20989370;27;75809;-62
2021/11/17 14:43:00;;;;;;;;;;;19.40;32.90;;;;;;20988232;27;76884;-59
2021/11/17 14:53:01;;;;;;;;;;;18.40;33.50;;;;;;20988206;27;75979;-59
2021/11/17 15:03:05;;;;;;;;;;;17.90;34.20;;;;;;20990085;27;76713;-57
2021/11/17 15:13:07;;;;;;;;;;;17.40;34.90;;;;;;20990589;27;76798;-59
2021/11/17 15:23:10;;;;;;;;;;;17.00;35.50;;;;;;20995607;27;75785;-61
2021/11/17 15:33:12;;;;;;;;;;;16.70;35.80;;;;;;20966019;27;74860;-58
2021/11/17 15:43:16;;;;;;;;;;;16.40;36.20;;;;;;20948291;27;76082;-58
2021/11/17 15:53:17;;;;;;;;;;;16.20;36.80;;;;;;20943591;27;75848;-58
2021/11/17 16:03:18;;;;;;;;;;;15.90;37.40;;;;;;20933430;27;76779;-60
2021/11/17 16:13:21;;;;;;;;;;;15.60;38.20;;;;;;20998216;27;75897;-63
2021/11/17 16:33:26;;;;;;;;;;;15.20;39.30;;;;;;20992452;27;75589;-60
2021/11/17 16:43:28;;;;;;;;;;;15.00;40.00;;;;;;20994407;27;75628;-61
2021/11/17 16:53:30;;;;;;;;;;;14.70;40.60;;;;;;20995419;27;75756;-63
2021/11/17 17:03:32;;;;;;;;;;;14.50;41.20;;;;;;20977644;27;77397;-60
2021/11/17 17:13:34;;;;;;;;;;;14.20;41.80;;;;;;20994919;27;75661;-71
2021/11/17 17:23:41;;;;;;;;;;;13.90;42.70;;;;;;20992543;27;75998;-71
2021/11/17 17:33:45;;;;;;;;;;;13.50;44.00;;;;;;20987537;27;75992;-71
2021/11/17 17:43:49;;;;;;;;;;;13.30;44.40;;;;;;20936963;27;75817;-71
2021/11/17 17:53:51;;;;;;;;;;;13.10;45.60;;;;;;20903440;28;76071;-75
2021/11/17 18:03:53;;;;;;;;;;;13.00;45.10;;;;;;20886382;27;75897;-73
2021/11/17 18:13:55;;;;;;;;;;;12.90;45.50;;;;;;20910217;27;76910;-69
2021/11/17 18:23:58;;;;;;;;;;;12.70;45.80;;;;;;20905814;28;75759;-71
2021/11/17 18:34:00;;;;;;;;;;;12.50;47.00;;;;;;20948705;27;74767;-74
2021/11/17 18:44:03;;;;;;;;;;;12.40;47.40;;;;;;20989397;27;75689;-73
2021/11/17 18:54:05;;;;;;;;;;;12.30;48.40;;;;;;20970545;27;75592;-71
2021/11/17 19:04:07;;;;;;;;;;;12.00;49.00;;;;;;20989692;27;77294;-73
2021/11/17 19:14:09;;;;;;;;;;;11.80;49.80;;;;;;20994026;27;75734;-74
2021/11/17 19:24:11;;;;;;;;;;;11.60;50.60;;;;;;21002954;27;74753;-70
2021/11/17 19:34:14;;;;;;;;;;;11.40;51.50;;;;;;21000611;27;75817;-71
2021/11/17 19:44:17;;;;;;;;;;;11.20;53.20;;;;;;21002088;27;76799;-75
2021/11/17 19:54:19;;;;;;;;;;;11.00;53.00;;;;;;20981374;27;76883;-74
2021/11/17 20:04:24;;;;;;;;;;;10.70;53.90;;;;;;20993194;27;75165;-73
2021/11/17 20:14:26;;;;;;;;;;;10.50;54.50;;;;;;20996105;27;76560;-71
2021/11/17 20:24:30;;;;;;;;;;;10.40;54.30;;;;;;20986799;27;77134;-73
2021/11/17 20:34:32;;;;;;;;;;;10.90;52.10;;;;;;20923168;27;76833;-71
2021/11/17 20:44:34;;;;;;;;;;;11.00;51.60;;;;;;20889819;27;76517;-71
2021/11/17 20:54:39;;;;;;;;;;;10.80;52.00;;;;;;20894181;28;75946;-69
2021/11/17 21:04:41;;;;;;;;;;;10.80;51.90;;;;;;20910323;28;74651;-71
2021/11/17 21:14:44;;;;;;;;;;;10.80;51.00;;;;;;20892062;27;75701;-72
2021/11/17 21:24:47;;;;;;;;;;;10.70;50.70;;;;;;20910321;28;75720;-74
2021/11/17 21:34:51;;;;;;;;;;;10.50;50.50;;;;;;20903856;27;94711;-72
2021/11/17 21:44:57;;;;;;;;;;;10.30;50.60;;;;;;20891480;28;75914;-74
2021/11/17 21:55:01;;;;;;;;;;;10.20;49.90;;;;;;20898127;28;75959;-72
2021/11/17 22:05:03;;;;;;;;;;;10.10;49.30;;;;;;20886896;28;76253;-74
2021/11/17 22:15:06;;;;;;;;;;;9.90;49.30;;;;;;20901809;28;76867;-72
2021/11/17 22:25:08;;;;;;;;;;;9.80;49.30;;;;;;20900408;27;75546;-74
2021/11/17 22:35:11;;;;;;;;;;;9.50;49.60;;;;;;20977952;27;76720;-71
2021/11/17 22:45:15;;;;;;;;;;;9.40;50.20;;;;;;20990682;27;76806;-76
2021/11/17 22:55:20;;;;;;;;;;;9.40;49.70;;;;;;21003807;27;77114;-70
2021/11/17 23:05:21;;;;;;;;;;;9.20;49.70;;;;;;21004004;27;76776;-71
2021/11/17 23:15:43;;;;;;;;;;;9.20;49.40;;;;;;20998446;27;76548;-72
2021/11/17 23:25:50;;;;;;;;;;;9.20;49.00;;;;;;21002098;27;75654;-72
2021/11/17 23:35:56;;;;;;;;;;;9.10;48.80;;;;;;20996741;27;75588;-70
2021/11/17 23:45:58;;;;;;;;;;;9.00;48.70;;;;;;20999029;27;75747;-71
2021/11/17 23:56:03;;;;;;;;;;;8.90;48.90;;;;;;20999404;27;75897;-71
